Time;durP1;ratioP1;P1;durP2;ratioP2;P2;SDS_P1;SDS_P2;PMS_P1;PMS_P2;Temp;Humidity;BMP_temperature;BMP_pressure;BME280_temperature;BME280_humidity;BME280_pressure;Samples;Min_cycle;Max_cycle;Signal;HPM_P1;HPM_P2
2023/07/14 00:02:51;;;;;;;10.85;6.90;;;;;;;14.31;100.00;101682.13;10395503;28;20052;-70
2023/07/14 00:07:52;;;;;;;11.93;6.72;;;;;;;14.21;100.00;101673.69;10362940;28;20061;-70
2023/07/14 00:12:53;;;;;;;10.80;6.80;;;;;;;14.06;100.00;101663.28;10370510;28;20042;-70
2023/07/14 00:17:55;;;;;;;9.50;6.72;;;;;;;14.02;100.00;101667.66;10371245;28;20117;-70
2023/07/14 00:22:56;;;;;;;12.77;7.82;;;;;;;13.95;100.00;101664.22;10371493;28;20121;-70
2023/07/14 00:27:56;;;;;;;16.65;7.97;;;;;;;13.86;100.00;101658.31;10354831;28;20099;-70
2023/07/14 00:32:57;;;;;;;10.27;7.20;;;;;;;13.78;100.00;101656.81;10354786;28;20165;-70
2023/07/14 00:37:57;;;;;;;11.93;7.47;;;;;;;13.83;100.00;101665.22;10374967;28;20444;-70
2023/07/14 00:42:58;;;;;;;12.45;7.75;;;;;;;13.88;100.00;101665.25;10394265;28;20041;-70
2023/07/14 00:48:03;;;;;;;12.88;8.32;;;;;;;13.88;100.00;101656.94;10410610;28;20124;-70
2023/07/14 00:53:06;;;;;;;17.52;9.80;;;;;;;13.52;100.00;101603.94;10363609;28;20037;-69
2023/07/14 00:58:17;;;;;;;11.82;7.72;;;;;;;13.73;100.00;101642.94;10362171;28;20097;-70
2023/07/14 01:03:17;;;;;;;16.35;7.88;;;;;;;13.63;100.00;101651.09;10337731;28;20045;-70
2023/07/14 01:08:19;;;;;;;15.60;8.57;;;;;;;13.57;100.00;101646.59;10369762;28;20037;-70
2023/07/14 01:13:20;;;;;;;15.60;9.10;;;;;;;13.49;100.00;101643.16;10352851;28;20042;-70
2023/07/14 01:18:21;;;;;;;12.52;8.52;;;;;;;13.31;100.00;101624.94;10321097;28;20473;-70
2023/07/14 01:23:34;;;;;;;14.77;10.50;;;;;;;13.37;100.00;101645.19;10337818;28;20041;-70
2023/07/14 01:28:35;;;;;;;15.27;11.13;;;;;;;13.32;100.00;101639.59;10395079;28;20037;-70
2023/07/14 01:33:35;;;;;;;15.38;10.40;;;;;;;13.34;100.00;101640.19;10365193;28;20064;-69
2023/07/14 01:38:36;;;;;;;18.25;12.05;;;;;;;13.23;100.00;101627.25;10392422;28;20115;-71
2023/07/14 01:43:37;;;;;;;17.40;11.05;;;;;;;13.21;100.00;101635.81;10360030;28;20084;-70
2023/07/14 01:48:51;;;;;;;16.00;11.35;;;;;;;13.21;100.00;101646.00;10389895;28;20036;-70
2023/07/14 01:54:18;;;;;;;21.90;12.38;;;;;;;13.16;100.00;101637.66;10403653;28;20489;-70
2023/07/14 01:59:20;;;;;;;17.38;11.75;;;;;;;13.03;100.00;101628.63;10393671;28;20068;-70
2023/07/14 02:04:25;;;;;;;20.25;13.02;;;;;;;13.01;100.00;101639.09;10359809;28;20056;-70
2023/07/14 02:09:28;;;;;;;30.98;14.43;;;;;;;12.96;100.00;101633.50;10363863;28;20112;-70
2023/07/14 02:14:32;;;;;;;23.13;13.77;;;;;;;12.95;100.00;101633.75;10385414;28;20038;-70
2023/07/14 02:19:33;;;;;;;20.50;13.45;;;;;;;12.88;100.00;101625.63;10394745;28;20041;-70
2023/07/14 02:24:33;;;;;;;24.05;14.43;;;;;;;12.76;100.00;101611.06;10456498;28;20087;-70
2023/07/14 02:29:34;;;;;;;27.88;15.57;;;;;;;12.83;100.00;101625.53;10423526;28;20048;-70
2023/07/14 02:34:36;;;;;;;23.08;15.23;;;;;;;12.78;100.00;101630.97;10458276;28;20036;-70
2023/07/14 02:39:37;;;;;;;24.15;15.48;;;;;;;12.63;100.00;101607.53;10423443;28;20051;-70
2023/07/14 02:44:37;;;;;;;29.15;15.57;;;;;;;12.78;100.00;101622.69;10394117;28;20037;-70
2023/07/14 02:49:39;;;;;;;25.27;15.48;;;;;;;12.64;100.00;101609.19;10427845;28;20367;-69
2023/07/14 02:54:40;;;;;;;27.58;16.13;;;;;;;12.61;100.00;101603.31;10423389;28;20087;-69
2023/07/14 02:59:40;;;;;;;25.30;15.85;;;;;;;12.64;100.00;101625.75;10456748;28;20049;-69
2023/07/14 03:04:41;;;;;;;26.88;16.15;;;;;;;12.60;100.00;101624.59;10455423;28;20053;-68
2023/07/14 03:09:41;;;;;;;26.95;17.45;;;;;;;12.57;100.00;101619.56;10384323;28;20044;-69
2023/07/14 03:14:42;;;;;;;29.77;16.33;;;;;;;12.55;100.00;101615.38;10397295;28;20087;-69
2023/07/14 03:19:42;;;;;;;26.50;16.85;;;;;;;12.49;100.00;101619.97;10397665;28;20033;-69
2023/07/14 03:24:43;;;;;;;28.13;17.17;;;;;;;12.54;100.00;101622.00;10381444;28;20037;-69
2023/07/14 03:29:43;;;;;;;29.02;18.10;;;;;;;12.55;100.00;101616.22;10434722;28;20033;-69
2023/07/14 03:34:44;;;;;;;30.58;16.77;;;;;;;12.57;100.00;101608.53;10415726;28;20054;-70
2023/07/14 03:39:44;;;;;;;31.20;17.55;;;;;;;12.48;100.00;101587.91;10397156;28;20030;-69
2023/07/14 03:44:45;;;;;;;26.83;16.08;;;;;;;12.57;100.00;101610.44;10365380;28;20495;-69
2023/07/14 03:49:45;;;;;;;28.10;16.50;;;;;;;12.54;100.00;101597.97;10380984;28;20067;-69
2023/07/14 03:54:46;;;;;;;26.67;16.42;;;;;;;12.56;100.00;101600.47;10450544;28;20051;-69
2023/07/14 03:59:46;;;;;;;27.67;15.18;;;;;;;12.59;100.00;101599.97;10454740;28;20037;-69
2023/07/14 04:04:47;;;;;;;27.10;16.15;;;;;;;12.62;100.00;101611.38;10453231;28;20037;-69
2023/07/14 04:09:47;;;;;;;27.80;15.73;;;;;;;12.63;100.00;101602.00;10420877;28;20053;-69
2023/07/14 04:14:48;;;;;;;27.50;15.30;;;;;;;12.68;100.00;101609.53;10450092;28;20045;-69
2023/07/14 04:19:49;;;;;;;25.63;16.15;;;;;;;12.71;100.00;101612.66;10414568;28;20029;-69
2023/07/14 04:24:50;;;;;;;22.10;13.38;;;;;;;12.77;100.00;101615.47;10414013;28;20033;-69
2023/07/14 04:29:50;;;;;;;24.48;13.32;;;;;;;12.81;100.00;101609.19;10395036;28;20049;-69
2023/07/14 04:34:51;;;;;;;20.88;12.13;;;;;;;12.87;100.00;101608.19;10426212;28;20061;-69
2023/07/14 04:39:52;;;;;;;19.70;12.43;;;;;;;12.96;100.00;101611.38;10453079;28;20211;-69
2023/07/14 04:44:52;;;;;;;20.63;11.80;;;;;;;13.05;100.00;101604.31;10436567;28;20037;-69
2023/07/14 04:49:53;;;;;;;23.27;13.35;;;;;;;13.11;100.00;101608.84;10452970;28;20037;-69
2023/07/14 04:54:53;;;;;;;18.13;11.68;;;;;;;13.17;100.00;101600.59;10419686;28;20048;-69
2023/07/14 04:59:54;;;;;;;18.42;12.85;;;;;;;13.21;100.00;101597.09;10452754;28;20558;-69
2023/07/14 05:05:16;;;;;;;23.42;11.25;;;;;;;13.34;100.00;101584.88;10399726;28;20501;-69
2023/07/14 05:10:17;;;;;;;14.10;8.98;;;;;;;13.41;100.00;101591.03;10403093;28;20382;-69
2023/07/14 05:15:18;;;;;;;18.63;10.18;;;;;;;13.44;100.00;101579.47;10435090;28;20052;-69
2023/07/14 05:20:19;;;;;;;16.77;10.30;;;;;;;13.56;100.00;101584.03;10402292;28;20037;-69
2023/07/14 05:25:19;;;;;;;15.00;8.90;;;;;;;13.69;100.00;101583.66;10418606;28;20105;-70
2023/07/14 05:30:20;;;;;;;18.60;10.40;;;;;;;13.85;100.00;101593.81;10434570;28;20057;-69
2023/07/14 05:35:21;;;;;;;15.30;9.32;;;;;;;14.00;100.00;101576.53;10418640;28;20080;-68
2023/07/14 05:40:21;;;;;;;16.02;8.65;;;;;;;14.24;100.00;101590.94;10434640;28;20037;-69
2023/07/14 05:45:22;;;;;;;18.50;8.82;;;;;;;14.45;100.00;101591.97;10442923;28;20041;-70
2023/07/14 05:50:22;;;;;;;14.32;9.38;;;;;;;14.59;100.00;101584.06;10386267;28;20038;-68
2023/07/14 05:55:23;;;;;;;18.23;9.52;;;;;;;14.49;100.00;101539.59;10401715;28;20064;-69
2023/07/14 06:00:25;;;;;;;14.68;8.48;;;;;;;15.07;100.00;101579.44;10399446;28;20033;-69
2023/07/14 06:05:25;;;;;;;12.63;7.50;;;;;;;15.27;100.00;101572.34;10412310;28;20078;-70
2023/07/14 06:10:26;;;;;;;12.50;8.10;;;;;;;15.51;100.00;101584.69;10424719;28;20116;-70
2023/07/14 06:15:28;;;;;;;15.48;7.57;;;;;;;15.82;100.00;101578.47;10416110;28;20515;-70
2023/07/14 06:20:28;;;;;;;12.75;7.80;;;;;;;16.20;100.00;101566.03;10415547;28;20034;-70
2023/07/14 06:25:29;;;;;;;9.43;6.90;;;;;;;16.89;100.00;101569.44;10366227;28;20076;-70
2023/07/14 06:30:29;;;;;;;12.55;7.07;;;;;;;17.26;100.00;101559.88;10398628;28;20492;-70
2023/07/14 06:35:30;;;;;;;11.13;5.68;;;;;;;17.16;100.00;101560.75;10400323;28;20080;-70
2023/07/14 06:40:30;;;;;;;8.75;6.05;;;;;;;17.18;100.00;101555.75;10401240;28;20424;-69
2023/07/14 06:45:31;;;;;;;11.90;6.60;;;;;;;17.14;100.00;101538.78;10408973;28;20044;-69
2023/07/14 06:50:32;;;;;;;8.73;6.63;;;;;;;17.25;100.00;101555.44;10404478;28;20044;-69
2023/07/14 06:55:33;;;;;;;12.95;7.00;;;;;;;17.38;100.00;101556.78;10405730;28;20040;-69
2023/07/14 07:00:33;;;;;;;10.93;6.55;;;;;;;17.43;100.00;101543.69;10402026;28;20037;-70
2023/07/14 07:05:39;;;;;;;13.32;7.75;;;;;;;17.47;100.00;101546.75;10402516;28;20120;-70
2023/07/14 07:10:40;;;;;;;12.43;6.53;;;;;;;17.57;100.00;101557.00;10403289;28;20046;-70
2023/07/14 07:15:40;;;;;;;12.18;6.32;;;;;;;17.80;100.00;101555.50;10429595;28;20037;-69
2023/07/14 07:20:42;;;;;;;11.77;6.47;;;;;;;18.07;100.00;101550.38;10420610;28;20036;-70
2023/07/14 07:25:49;;;;;;;10.32;6.05;;;;;;;18.37;100.00;101542.91;10437279;28;20032;-69
2023/07/14 07:30:50;;;;;;;10.57;6.15;;;;;;;18.54;100.00;101528.53;10436556;28;20509;-69
2023/07/14 07:35:54;;;;;;;6.40;4.55;;;;;;;18.46;100.00;101490.13;10438282;28;20045;-69
2023/07/14 07:40:55;;;;;;;13.38;5.72;;;;;;;18.93;100.00;101520.13;10437260;28;20041;-69
2023/07/14 07:45:55;;;;;;;12.18;5.75;;;;;;;19.01;100.00;101518.63;10436025;28;20044;-69
2023/07/14 07:50:56;;;;;;;9.45;3.92;;;;;;;19.25;100.00;101513.06;10431630;28;20052;-69
2023/07/14 07:55:57;;;;;;;8.10;3.83;;;;;;;19.68;100.00;101509.44;10437244;28;20096;-69
2023/07/14 08:00:59;;;;;;;8.15;4.20;;;;;;;19.92;100.00;101490.66;10413735;28;20044;-69
2023/07/14 08:06:01;;;;;;;7.97;3.85;;;;;;;20.14;100.00;101494.81;10390974;28;20044;-69
2023/07/14 08:11:02;;;;;;;7.25;2.42;;;;;;;20.14;100.00;101466.84;10451899;28;20048;-69
2023/07/14 08:16:02;;;;;;;5.00;2.03;;;;;;;20.38;100.00;101471.47;10405633;28;20068;-69
2023/07/14 08:21:03;;;;;;;4.75;2.45;;;;;;;20.62;100.00;101475.00;10379897;28;20089;-69
2023/07/14 08:26:04;;;;;;;6.50;2.55;;;;;;;20.73;100.00;101465.28;10378826;28;20080;-69
2023/07/14 08:31:06;;;;;;;5.30;2.38;;;;;;;20.93;100.00;101457.63;10379403;28;20041;-70
2023/07/14 08:36:07;;;;;;;2.97;1.92;;;;;;;21.22;100.00;101464.88;10431705;28;20057;-69
2023/07/14 08:41:22;;;;;;;3.40;2.28;;;;;;;21.00;100.00;101452.47;10418113;28;20040;-69
2023/07/14 08:46:32;;;;;;;5.60;1.92;;;;;;;21.35;100.00;101425.66;10432251;28;20056;-68
2023/07/14 08:51:45;;;;;;;9.00;2.97;;;;;;;21.79;100.00;101437.31;10393302;28;20396;-69
2023/07/14 08:56:45;;;;;;;4.55;2.10;;;;;;;21.02;100.00;101444.56;10395014;28;20591;-69
2023/07/14 09:01:50;;;;;;;3.25;1.65;;;;;;;20.39;100.00;101440.41;10378904;28;20053;-68
2023/07/14 09:06:50;;;;;;;3.83;2.00;;;;;;;19.93;100.00;101439.25;10411488;28;20045;-69
2023/07/14 09:12:20;;;;;;;3.38;2.08;;;;;;;19.67;100.00;101449.13;10393517;28;20042;-68
2023/07/14 09:17:35;;;;;;;5.15;2.25;;;;;;;19.83;100.00;101438.56;10371995;28;20044;-68
2023/07/14 09:22:57;;;;;;;4.07;2.08;;;;;;;19.98;100.00;101434.69;10394931;28;20042;-68
2023/07/14 09:27:57;;;;;;;5.00;2.65;;;;;;;19.92;100.00;101436.75;10410504;28;20053;-68
2023/07/14 09:33:00;;;;;;;9.25;3.80;;;;;;;20.11;100.00;101433.91;10393237;28;20041;-68
2023/07/14 09:38:15;;;;;;;4.78;2.33;;;;;;;20.03;100.00;101432.66;10393242;28;20042;-68
2023/07/14 09:43:15;;;;;;;4.65;2.80;;;;;;;20.28;100.00;101428.59;10375573;28;20044;-69
2023/07/14 09:48:22;;;;;;;4.82;2.67;;;;;;;20.40;100.00;101419.69;10407088;28;20454;-69
2023/07/14 09:53:23;;;;;;;7.53;2.83;;;;;;;20.87;100.00;101417.72;10381350;28;20192;-69
2023/07/14 09:58:29;;;;;;;5.95;2.08;;;;;;;21.58;100.00;101391.28;10390555;28;20061;-70
2023/07/14 10:03:34;;;;;;;4.33;1.50;;;;;;;22.48;100.00;101389.28;10372868;28;20034;-69
2023/07/14 10:08:44;;;;;;;4.60;1.80;;;;;;;23.16;100.00;101392.69;10406603;28;20271;-69
2023/07/14 10:14:16;;;;;;;4.90;2.75;;;;;;;22.58;100.00;101373.31;10388588;28;20646;-69
2023/07/14 10:19:21;;;;;;;3.35;2.03;;;;;;;22.13;100.00;101368.59;10354517;28;20043;-69
2023/07/14 10:24:21;;;;;;;4.80;2.20;;;;;;;21.47;100.00;101374.72;10405945;28;20061;-69
2023/07/14 10:29:23;;;;;;;4.80;2.17;;;;;;;21.52;100.00;101374.59;10410654;28;20457;-69
2023/07/14 10:35:04;;;;;;;4.30;1.85;;;;;;;22.01;100.00;101371.16;10413377;28;20038;-68
2023/07/14 10:40:11;;;;;;;5.18;1.95;;;;;;;22.02;100.00;101370.03;10413438;28;20037;-69
2023/07/14 10:45:13;;;;;;;5.13;1.88;;;;;;;22.77;100.00;101365.47;10387156;28;20041;-69
2023/07/14 10:50:41;;;;;;;4.00;1.88;;;;;;;22.72;100.00;101360.84;10403993;28;20060;-69
2023/07/14 10:55:42;;;;;;;4.20;2.15;;;;;;;22.43;100.00;101361.38;10424996;28;20072;-69
2023/07/14 11:00:53;;;;;;;4.15;1.77;;;;;;;22.94;100.00;101343.06;10398188;28;20053;-70
2023/07/14 11:05:59;;;;;;;7.07;2.20;;;;;;;22.65;100.00;101329.59;10383284;28;20060;-69
2023/07/14 11:11:11;;;;;;;4.82;2.10;;;;;;;22.31;100.00;101350.75;10415217;28;20040;-69
2023/07/14 11:16:37;;;;;;;5.25;2.08;;;;;;;22.28;100.00;101356.19;10382996;28;20074;-69
2023/07/14 11:21:43;;;;;;;4.32;1.80;;;;;;;22.01;100.00;101340.31;10390552;28;20037;-70
2023/07/14 11:27:09;;;;;;;7.03;2.42;;;;;;;21.76;100.00;101337.03;10438175;28;20045;-69
2023/07/14 11:32:17;;;;;;;5.47;1.92;;;;;;;21.70;100.00;101339.13;10452425;28;20129;-70
2023/07/14 11:37:39;;;;;;;5.03;1.92;;;;;;;22.32;100.00;101327.16;10377540;28;20057;-69
2023/07/14 11:42:40;;;;;;;5.80;2.10;;;;;;;23.67;100.00;101319.13;10451002;28;20045;-70
2023/07/14 11:47:41;;;;;;;3.78;1.35;;;;;;;23.35;100.00;101304.47;10415767;28;20057;-68
2023/07/14 11:52:57;;;;;;;4.47;2.03;;;;;;;22.52;100.00;101306.13;10403810;28;20679;-72
2023/07/14 11:58:20;;;;;;;5.53;2.08;;;;;;;22.07;100.00;101313.81;10435407;28;20120;-68
2023/07/14 12:03:32;;;;;;;3.70;2.22;;;;;;;22.03;100.00;101308.00;10453664;28;20144;-66
2023/07/14 12:08:38;;;;;;;10.25;2.20;;;;;;;23.14;100.00;101307.09;10409560;28;20096;-67
2023/07/14 12:13:40;;;;;;;6.27;2.30;;;;;;;24.83;100.00;101283.50;10392433;28;20101;-67
2023/07/14 12:19:01;;;;;;;4.78;2.75;;;;;;;25.89;96.24;101271.81;10413161;28;20040;-68
2023/07/14 12:24:17;;;;;;;3.33;2.53;;;;;;;26.16;91.02;101261.03;10414829;28;20042;-68
2023/07/14 12:29:19;;;;;;;6.80;2.03;;;;;;;26.16;84.59;101258.22;10414212;28;20076;-68
2023/07/14 12:34:27;;;;;;;3.30;1.80;;;;;;;24.41;88.07;101211.03;10394812;28;20033;-68
2023/07/14 12:39:28;;;;;;;3.60;1.75;;;;;;;24.38;88.44;101266.00;10362451;28;20093;-67
2023/07/14 12:44:35;;;;;;;3.58;1.40;;;;;;;25.41;86.19;101244.28;10412801;28;20087;-68
2023/07/14 12:49:46;;;;;;;3.88;1.90;;;;;;;25.73;82.59;101228.50;10379504;28;20362;-67
2023/07/14 12:54:47;;;;;;;4.45;1.98;;;;;;;25.08;83.64;101240.22;10347694;28;20029;-68
2023/07/14 12:59:49;;;;;;;3.38;2.20;;;;;;;24.10;85.78;101239.50;10397835;28;20134;-69
2023/07/14 13:04:50;;;;;;;5.78;1.90;;;;;;;23.96;91.36;101254.63;10435139;28;20041;-68
2023/07/14 13:10:00;;;;;;;3.55;1.50;;;;;;;24.53;85.53;101228.03;10419272;28;20041;-68
2023/07/14 13:15:02;;;;;;;2.47;1.60;;;;;;;24.98;84.70;101227.38;10419875;28;20044;-68
2023/07/14 13:20:19;;;;;;;6.15;2.50;;;;;;;25.23;84.50;101218.25;10419767;28;20040;-67
2023/07/14 13:25:20;;;;;;;5.00;1.85;;;;;;;25.04;85.08;101225.19;10378203;28;20040;-68
2023/07/14 13:30:29;;;;;;;5.53;1.95;;;;;;;24.81;84.88;101201.38;10392420;28;20053;-68
2023/07/14 13:35:31;;;;;;;3.17;1.42;;;;;;;25.09;88.13;101222.16;10378414;28;20046;-68
2023/07/14 13:40:34;;;;;;;3.47;1.55;;;;;;;25.14;85.63;101184.50;10412027;28;20444;-68
2023/07/14 13:45:38;;;;;;;3.70;1.73;;;;;;;25.18;83.31;101191.91;10361702;28;20457;-68
2023/07/14 13:50:38;;;;;;;3.30;1.60;;;;;;;24.82;84.19;101184.09;10393338;28;20033;-68
2023/07/14 13:55:38;;;;;;;3.85;1.80;;;;;;;24.45;87.05;101200.75;10392996;28;20029;-68
2023/07/14 14:00:39;;;;;;;4.00;1.98;;;;;;;24.23;86.53;101182.19;10413841;28;20041;-68
2023/07/14 14:05:41;;;;;;;4.88;2.05;;;;;;;24.06;87.36;101169.06;10383505;28;20052;-68
2023/07/14 14:10:42;;;;;;;3.60;1.70;;;;;;;23.90;88.93;101177.22;10417642;28;20401;-67
2023/07/14 14:15:44;;;;;;;4.82;2.10;;;;;;;23.48;91.46;101171.41;10400224;28;20041;-68
2023/07/14 14:20:45;;;;;;;3.08;2.05;;;;;;;23.34;93.85;101159.53;10418880;28;20038;-68
2023/07/14 14:25:46;;;;;;;4.32;1.60;;;;;;;23.36;92.80;101141.19;10383391;28;20059;-68
2023/07/14 14:30:47;;;;;;;3.00;1.77;;;;;;;23.67;93.75;101136.44;10417848;28;20113;-68
2023/07/14 14:35:48;;;;;;;3.35;1.90;;;;;;;24.46;88.79;101117.16;10418187;28;20037;-68
2023/07/14 14:40:49;;;;;;;2.33;1.40;;;;;;;24.74;88.01;101109.84;10408180;28;20033;-68
2023/07/14 14:45:49;;;;;;;3.35;1.77;;;;;;;25.09;93.33;101120.72;10382500;28;20041;-68
2023/07/14 14:50:51;;;;;;;4.30;1.60;;;;;;;25.90;87.83;101109.88;10368639;28;20056;-69
2023/07/14 14:56:15;;;;;;;4.00;1.60;;;;;;;26.12;85.54;101104.91;10382282;28;20052;-67
2023/07/14 15:01:38;;;;;;;2.80;1.50;;;;;;;26.35;81.16;101085.47;10383335;28;20045;-68
2023/07/14 15:06:40;;;;;;;2.45;1.80;;;;;;;26.91;76.05;101073.38;10411827;28;20053;-68
2023/07/14 15:11:42;;;;;;;2.60;1.40;;;;;;;26.04;76.91;101080.47;10438548;28;20521;-68
2023/07/14 15:16:43;;;;;;;3.42;1.40;;;;;;;25.64;79.93;101072.72;10400225;28;20045;-70
2023/07/14 15:21:43;;;;;;;3.05;1.75;;;;;;;25.85;81.71;101066.94;10390031;28;20050;-69
2023/07/14 15:26:45;;;;;;;2.75;1.90;;;;;;;26.34;79.68;101041.50;10391697;28;20043;-69
2023/07/14 15:31:46;;;;;;;4.13;1.70;;;;;;;26.26;77.73;101048.91;10392342;28;20064;-69
2023/07/14 15:36:46;;;;;;;3.17;1.38;;;;;;;26.12;78.97;101046.47;10391793;28;20034;-70
2023/07/14 15:41:47;;;;;;;2.08;1.50;;;;;;;25.81;80.95;101041.44;10395484;28;20041;-69
2023/07/14 15:46:48;;;;;;;4.93;1.73;;;;;;;26.03;80.19;101053.47;10400575;28;20041;-69
2023/07/14 15:51:48;;;;;;;4.03;1.67;;;;;;;26.07;81.19;101031.81;10399816;28;20110;-69
2023/07/14 15:56:49;;;;;;;2.92;1.80;;;;;;;27.10;80.93;101021.81;10368292;28;20379;-69
2023/07/14 16:01:49;;;;;;;4.22;2.13;;;;;;;27.46;74.12;100997.31;10433057;28;20047;-69
2023/07/14 16:06:50;;;;;;;4.30;2.00;;;;;;;28.12;75.83;100984.31;10363222;28;20119;-69
2023/07/14 16:11:50;;;;;;;3.95;1.90;;;;;;;26.83;74.20;100983.97;10416852;28;20059;-70
2023/07/14 16:16:51;;;;;;;6.28;2.00;;;;;;;25.71;78.84;100988.34;10408225;28;20455;-69
2023/07/14 16:21:52;;;;;;;3.30;1.40;;;;;;;25.11;81.31;100997.25;10417523;28;20083;-69
2023/07/14 16:26:55;;;;;;;3.80;1.65;;;;;;;25.37;85.75;101001.78;10384815;28;20037;-69
2023/07/14 16:31:56;;;;;;;2.60;1.50;;;;;;;25.78;85.05;100986.59;10415694;28;20045;-68
2023/07/14 16:36:56;;;;;;;2.33;1.60;;;;;;;25.26;84.62;100983.69;10401325;28;20536;-68
2023/07/14 16:41:57;;;;;;;2.55;1.38;;;;;;;25.11;85.53;100976.72;10400842;28;20056;-68
2023/07/14 16:47:02;;;;;;;4.13;1.63;;;;;;;24.55;88.27;100971.56;10417177;28;20071;-68
2023/07/14 16:52:06;;;;;;;6.03;1.52;;;;;;;24.21;91.73;100976.34;10416419;28;20033;-68
2023/07/14 16:57:22;;;;;;;3.63;1.70;;;;;;;24.03;94.26;100983.28;10417878;28;20408;-68
2023/07/14 17:02:23;;;;;;;4.15;1.73;;;;;;;23.83;97.40;100965.25;10402644;28;20085;-68
2023/07/14 17:07:25;;;;;;;5.03;1.67;;;;;;;23.61;97.89;100972.00;10400744;28;20040;-68
2023/07/14 17:12:25;;;;;;;3.75;2.33;;;;;;;23.37;99.49;100973.44;10397174;28;20114;-68
2023/07/14 17:17:26;;;;;;;6.53;1.70;;;;;;;23.10;100.00;100969.94;10383730;28;20067;-69
2023/07/14 17:22:27;;;;;;;3.58;2.58;;;;;;;22.90;100.00;100959.41;10401189;28;20037;-69
2023/07/14 17:27:28;;;;;;;4.13;1.70;;;;;;;22.84;100.00;100960.75;10405721;28;20065;-68
2023/07/14 17:32:28;;;;;;;2.47;1.60;;;;;;;22.76;100.00;100949.25;10403244;28;20052;-68
2023/07/14 17:37:29;;;;;;;4.68;1.90;;;;;;;22.61;100.00;100934.91;10377000;28;20057;-68
2023/07/14 17:42:30;;;;;;;3.67;2.00;;;;;;;22.50;100.00;100934.47;10390328;28;20069;-68
2023/07/14 17:47:30;;;;;;;4.47;1.83;;;;;;;22.34;100.00;100942.56;10389194;28;20029;-68
2023/07/14 17:52:31;;;;;;;4.40;1.92;;;;;;;22.22;100.00;100943.22;10395323;28;20045;-68
2023/07/14 17:57:32;;;;;;;4.05;2.03;;;;;;;22.12;100.00;100943.56;10382675;28;20050;-68
2023/07/14 18:02:35;;;;;;;5.38;1.85;;;;;;;22.02;100.00;100946.72;10413262;28;20485;-68
2023/07/14 18:07:35;;;;;;;4.50;2.72;;;;;;;21.92;100.00;100933.84;10423654;28;20069;-68
2023/07/14 18:12:36;;;;;;;36.30;18.83;;;;;;;21.80;100.00;100909.28;10405889;28;20029;-67
2023/07/14 18:17:36;;;;;;;6.57;3.00;;;;;;;21.70;100.00;100892.78;10416237;28;20033;-68
2023/07/14 18:22:37;;;;;;;4.70;1.70;;;;;;;21.70;100.00;100906.78;10424011;28;20037;-68
2023/07/14 18:27:38;;;;;;;7.43;2.22;;;;;;;21.45;100.00;100889.63;10407102;28;20147;-68
2023/07/14 18:32:38;;;;;;;13.57;9.75;;;;;;;21.42;100.00;100889.44;10406697;28;20049;-68
2023/07/14 18:37:39;;;;;;;5.07;2.90;;;;;;;21.30;100.00;100892.88;10438532;28;20060;-68
2023/07/14 18:42:39;;;;;;;5.93;2.10;;;;;;;21.16;100.00;100888.22;10437367;28;20120;-69
2023/07/14 18:47:40;;;;;;;3.85;1.98;;;;;;;21.00;100.00;100887.06;10404257;28;20021;-66
2023/07/14 18:52:41;;;;;;;4.38;2.00;;;;;;;20.97;100.00;100901.69;10384630;28;20029;-67
2023/07/14 18:57:42;;;;;;;4.07;2.33;;;;;;;20.88;100.00;100884.06;10380037;28;20552;-67
2023/07/14 19:02:42;;;;;;;3.42;1.92;;;;;;;20.76;100.00;100884.66;10379052;28;20041;-68
2023/07/14 19:07:47;;;;;;;3.90;2.10;;;;;;;20.57;100.00;100893.28;10394336;28;20038;-67
2023/07/14 19:12:48;;;;;;;6.00;2.70;;;;;;;20.59;100.00;100918.13;10395895;28;20052;-67
2023/07/14 19:17:50;;;;;;;4.85;1.92;;;;;;;20.50;100.00;100907.69;10390168;28;20038;-67
2023/07/14 19:22:51;;;;;;;2.70;1.80;;;;;;;20.46;100.00;100911.47;10392504;28;20045;-67
2023/07/14 19:27:51;;;;;;;3.47;1.98;;;;;;;20.40;100.00;100902.38;10386890;28;20048;-68
2023/07/14 19:32:53;;;;;;;4.50;3.40;;;;;;;20.29;100.00;100898.22;10376656;28;20124;-67
2023/07/14 19:37:53;;;;;;;4.43;2.22;;;;;;;20.07;100.00;100885.06;10420465;28;20067;-68
2023/07/14 19:42:54;;;;;;;4.93;2.33;;;;;;;19.93;100.00;100885.97;10402448;28;24700;-67
2023/07/14 19:47:55;;;;;;;4.28;2.80;;;;;;;19.73;100.00;100864.94;10418995;28;20116;-66
2023/07/14 19:52:56;;;;;;;7.55;3.00;;;;;;;19.61;100.00;100855.44;10401666;28;20047;-67
2023/07/14 19:57:57;;;;;;;5.43;3.00;;;;;;;19.51;100.00;100857.34;10436379;28;20040;-67
2023/07/14 20:02:57;;;;;;;9.60;3.10;;;;;;;19.41;100.00;100862.31;10434920;28;20033;-67
2023/07/14 20:07:58;;;;;;;4.30;3.20;;;;;;;19.34;100.00;100858.00;10380618;28;20288;-67
2023/07/14 20:13:00;;;;;;;7.80;3.38;;;;;;;19.29;100.00;100837.75;10401409;28;20041;-67
2023/07/14 20:18:00;;;;;;;5.43;3.38;;;;;;;19.31;100.00;100838.28;10414679;28;20100;-67
2023/07/14 20:23:01;;;;;;;6.18;3.25;;;;;;;19.28;100.00;100824.94;10405575;28;20060;-69
2023/07/14 20:28:01;;;;;;;7.57;4.25;;;;;;;19.28;100.00;100819.34;10436131;28;20057;-65
2023/07/14 20:33:02;;;;;;;8.52;4.93;;;;;;;19.25;100.00;100808.84;10434675;28;20037;-66
2023/07/14 20:38:09;;;;;;;5.80;3.40;;;;;;;19.28;100.00;100809.00;10434416;28;20401;-68
2023/07/14 20:43:17;;;;;;;6.50;3.95;;;;;;;19.25;100.00;100800.47;10418331;28;20109;-67
2023/07/14 20:48:19;;;;;;;6.53;3.63;;;;;;;19.22;100.00;100789.91;10412533;28;20036;-67
2023/07/14 20:53:20;;;;;;;4.85;3.28;;;;;;;19.22;100.00;100793.50;10418709;28;20048;-67
2023/07/14 20:58:22;;;;;;;7.25;3.90;;;;;;;19.18;100.00;100780.50;10433588;28;20044;-68
2023/07/14 21:03:28;;;;;;;4.95;3.67;;;;;;;19.19;100.00;100776.59;10416993;28;20045;-68
2023/07/14 21:08:33;;;;;;;8.98;4.53;;;;;;;19.09;100.00;100761.72;10432997;28;20078;-69
2023/07/14 21:13:33;;;;;;;6.35;3.85;;;;;;;19.06;100.00;100769.91;10381651;28;20374;-67
2023/07/14 21:18:34;;;;;;;5.03;3.45;;;;;;;19.06;100.00;100765.16;10400005;28;20089;-68
2023/07/14 21:23:35;;;;;;;5.05;3.80;;;;;;;18.99;100.00;100739.63;10433077;28;20092;-66
2023/07/14 21:28:36;;;;;;;5.22;3.83;;;;;;;19.06;100.00;100742.00;10390779;28;20345;-67
2023/07/14 21:33:38;;;;;;;8.82;4.30;;;;;;;19.07;100.00;100736.09;10397675;28;20497;-67
2023/07/14 21:38:40;;;;;;;7.95;4.53;;;;;;;19.02;100.00;100719.50;10397519;28;20081;-67
2023/07/14 21:43:44;;;;;;;6.63;4.53;;;;;;;19.01;100.00;100719.81;10414800;28;20036;-67
2023/07/14 21:48:45;;;;;;;7.13;4.18;;;;;;;18.94;100.00;100709.09;10430326;28;20179;-67
2023/07/14 21:53:47;;;;;;;6.53;4.22;;;;;;;18.82;100.00;100700.44;10427291;28;20105;-67
2023/07/14 21:58:47;;;;;;;8.55;5.15;;;;;;;18.67;100.00;100677.31;10394332;28;20037;-69
2023/07/14 22:03:48;;;;;;;7.55;4.13;;;;;;;18.75;100.00;100701.66;10398940;28;20025;-67
2023/07/14 22:08:49;;;;;;;5.90;4.00;;;;;;;18.80;100.00;100702.72;10385539;28;20060;-66
2023/07/14 22:13:49;;;;;;;8.23;4.25;;;;;;;18.84;100.00;100681.44;10434462;28;20041;-67
2023/07/14 22:18:50;;;;;;;8.05;4.47;;;;;;;18.85;100.00;100672.75;10434090;28;20045;-67
2023/07/14 22:23:51;;;;;;;8.70;4.25;;;;;;;18.88;100.00;100660.97;10390004;28;20075;-67
2023/07/14 22:28:51;;;;;;;6.90;3.85;;;;;;;18.91;100.00;100659.50;10417049;28;20421;-67
2023/07/14 22:33:53;;;;;;;7.03;3.97;;;;;;;18.94;100.00;100653.31;10414839;28;20112;-67
2023/07/14 22:38:55;;;;;;;10.98;3.92;;;;;;;18.92;100.00;100644.41;10417358;28;20041;-67
2023/07/14 22:43:59;;;;;;;7.03;3.88;;;;;;;18.91;100.00;100631.59;10416494;28;20051;-67
2023/07/14 22:49:00;;;;;;;6.13;3.10;;;;;;;18.94;100.00;100619.81;10400037;28;20918;-67
2023/07/14 22:54:01;;;;;;;6.75;3.92;;;;;;;18.99;100.00;100621.66;10414336;28;20269;-68